Nearby METAR Reports

 

KRNT - Renton, Washington, USA
Distance from station: NNW 3mi, 4km
Updated: Fri, 16-Apr-2021 2:53pm PDT
NOT Current
Clear
Clear
 Wind from NW
Wind: NW 13 mph , 20 km/h
Temperature: 75°F , 24°C
Dew Point: 37°F , 3°C
Humidity: 25%
Barometer: 30.16 inHg , 1021.3 hPa
Clouds: Clear
Visibility: 10 miles , 16 km
2021/04/16 21:53 KRNT 162153Z 32011KT 10SM CLR 24/03 A3016 RMK AO2 SLP218 T02440028
KSEA - Seattle/Metro, Washington, USA
Distance from station: W 5mi, 9km
Updated: Fri, 16-Apr-2021 2:53pm PDT
NOT Current
Clear
Clear
 Wind from NNW
Wind: NNW 8 mph , 13 km/h
Temperature: 79°F , 26°C
Dew Point: 37°F , 3°C
Humidity: 23%
Barometer: 30.18 inHg , 1022 hPa
Clouds: Clear
Visibility: 10 miles , 16 km
2021/04/16 21:53 KSEA 162153Z 33007KT 10SM CLR 26/03 A3018 RMK AO2 SLP225 T02560033
KBFI - Seattle/Boeing, Washington, USA
Distance from station: NW 8mi, 13km
Updated: Fri, 16-Apr-2021 2:53pm PDT
NOT Current
Clear
Clear
 Wind from NW
Wind: NW 10 mph , 17 km/h
Temperature: 73°F , 23°C
Dew Point: 36°F , 2°C
Humidity: 25%
Barometer: 30.17 inHg , 1021.7 hPa
Clouds: Clear
Visibility: 10 miles , 16 km
2021/04/16 21:53 KBFI 162153Z 32009KT 10SM CLR 23/02 A3017 RMK AO2 SLP216 T02330017
 
KTIW - Tacoma, Washington, USA
Distance from station: SW 22mi, 36km
Updated: Fri, 16-Apr-2021 2:53pm PDT
NOT Current
Clear
Clear
 Wind from NNE
Wind: NNE 12 mph , 19 km/h
Temperature: 73°F , 23°C
Dew Point: 32°F , 0°C
Humidity: 22%
Barometer: 30.17 inHg , 1021.7 hPa
Clouds: Clear
Visibility: 10 miles , 16 km
2021/04/16 21:53 KTIW 162153Z 02010KT 10SM CLR 23/00 A3017 RMK AO2 SLP215 T02280000
KPLU - Puyallup/Thun, Washington, USA
Distance from station: S 25mi, 41km
Updated: Fri, 16-Apr-2021 3:35pm PDT
Clear
Clear
 Wind from varies
Wind: varies 5 mph , 7 km/h, Gust: 14 mph , 22 km/h
Temperature: 79°F , 26°C
Dew Point: 25°F , -4°C
Humidity: 13%
Barometer: 30.15 inHg , 1021 hPa
Clouds: Clear
Visibility: 10 miles , 16 km
2021/04/16 22:35 KPLU 162235Z AUTO VRB04G12KT 10SM CLR 26/M04 A3015 RMK AO2
KPWT - Bremerton Ntnl, Washington, USA
Distance from station: W 26mi, 41km
Updated: Fri, 16-Apr-2021 2:56pm PDT
NOT Current
Clear
Clear
 Wind from NE
Wind: NE 10 mph , 17 km/h
Temperature: 75°F , 24°C
Dew Point: 34°F , 1°C
Humidity: 22%
Barometer: 30.19 inHg , 1022.4 hPa
Clouds: Clear
Visibility: 10 miles , 16 km
2021/04/16 21:56 KPWT 162156Z AUTO 04009KT 10SM CLR 24/01 A3019 RMK AO2 SLP227 T02440006
 
KTCM - Tacoma/Mc Chord, Washington, USA
Distance from station: SSW 27mi, 43km
Updated: Fri, 16-Apr-2021 2:58pm PDT
NOT Current
Clear
Clear
 Wind from NNE
Wind: NNE 10 mph , 17 km/h
Temperature: 77°F , 25°C
Dew Point: 37°F , 3°C
Humidity: 24%
Barometer: 30.16 inHg , 1021.3 hPa
Clouds: Clear
Visibility: 10 miles , 16 km
2021/04/16 21:58 KTCM 162158Z AUTO 02009KT 10SM CLR 25/03 A3016 RMK AO2 SLP217 T02510025 $
KPAE - Everett, Washington, USA
Distance from station: N 32mi, 51km
Updated: Fri, 16-Apr-2021 2:53pm PDT
NOT Current
Clear
Clear
 Wind from N
Wind: N 8 mph , 13 km/h
Temperature: 70°F , 21°C
Dew Point: 39°F , 4°C
Humidity: 33%
Barometer: 30.21 inHg , 1023 hPa
Clouds: Clear
Visibility: 10 miles , 16 km
2021/04/16 21:53 KPAE 162153Z 36007KT 10SM CLR 21/04 A3021 RMK AO2 SLP230 T02060039
KGRF - Fort Lewis/Gray, Washington, USA
Distance from station: SSW 32mi, 52km
Updated: Fri, 16-Apr-2021 2:58pm PDT
NOT Current
Clear
Clear
 Wind from NW
Wind: NW 9 mph , 15 km/h
Temperature: 77°F , 25°C
Dew Point: 34°F , 1°C
Humidity: 21%
Barometer: 30.16 inHg , 1021.3 hPa
Clouds: Clear
Visibility: 10 miles , 16 km
2021/04/16 21:58 KGRF 162158Z AUTO 32008KT 10SM CLR 25/01 A3016 RMK AO2 SLP217 T02480010 $
 
KSMP - Stampede Pass, Washington, USA
Distance from station: ESE 42mi, 68km
Updated: Fri, 16-Apr-2021 2:56pm PDT
NOT Current
Clear
Clear
 Wind from varies
Wind: varies 3 mph , 6 km/h
Temperature: 61°F , 16°C
Dew Point: 25°F , -4°C
Humidity: 25%
Barometer: 30.29 inHg , 1025.7 hPa
Clouds: Clear
Visibility: 10 miles , 16 km
2021/04/16 21:56 KSMP 162156Z AUTO VRB03KT 10SM CLR 16/M04 A3029 RMK AO2 SLP244 T01561039
KSHN - Shelton, Washington, USA
Distance from station: WSW 46mi, 75km
Updated: Fri, 16-Apr-2021 2:53pm PDT
NOT Current
Clear
Clear
 Wind from ENE
Wind: ENE 8 mph , 13 km/h
Temperature: 79°F , 26°C
Dew Point: 34°F , 1°C
Humidity: 20%
Barometer: 30.15 inHg , 1021 hPa
Clouds: Clear
Visibility: 10 miles , 16 km
2021/04/16 21:53 KSHN 162153Z AUTO 06007KT 10SM CLR 26/01 A3015 RMK AO2 SLP210 T02560011
KOLM - Olympia, Washington, USA
Distance from station: SW 47mi, 76km
Updated: Fri, 16-Apr-2021 2:54pm PDT
NOT Current
Clear
Clear
 Wind from ENE
Wind: ENE 10 mph , 17 km/h, Gust: 17 mph , 28 km/h
Temperature: 79°F , 26°C
Dew Point: 34°F , 1°C
Humidity: 20%
Barometer: 30.16 inHg , 1021.3 hPa
Clouds: Clear
Visibility: 10 miles , 16 km
2021/04/16 21:54 KOLM 162154Z 06009G15KT 10SM CLR 26/01 A3016 RMK AO2 SLP214 T02560011
 
KAWO - Arlington Muni, Washington, USA
Distance from station: N 49mi, 78km
Updated: Fri, 16-Apr-2021 2:56pm PDT
NOT Current
Clear
Clear
 Wind from NW
Wind: NW 10 mph , 17 km/h
Temperature: 72°F , 22°C
Dew Point: 45°F , 7°C
Humidity: 38%
Barometer: 30.20 inHg , 1022.7 hPa
Clouds: Clear
Visibility: 10 miles , 16 km
2021/04/16 21:56 KAWO 162156Z AUTO 32009KT 10SM CLR 22/07 A3020 RMK AO2 SLP229 T02220067
K0S9 - Port Townsend, Washington, USA
Distance from station: NW 50mi, 80km
Updated: Fri, 16-Apr-2021 3:35pm PDT

 
2021/04/16 22:35